sensor_id;sensor_type;location;lat;lon;timestamp;pressure;altitude;pressure_sealevel;temperature;humidity
64616;BME280;51027;42.162;24.754;2023-01-26T00:02:02;100637.59;;;3.01;100.00
64616;BME280;51027;42.162;24.754;2023-01-26T00:04:27;100641.09;;;3.06;100.00
64616;BME280;51027;42.162;24.754;2023-01-26T00:06:53;100643.00;;;3.35;99.06
64616;BME280;51027;42.162;24.754;2023-01-26T00:09:18;100636.00;;;3.25;99.18
64616;BME280;51027;42.162;24.754;2023-01-26T00:11:43;100613.38;;;3.10;99.45
64616;BME280;51027;42.162;24.754;2023-01-26T00:14:09;100624.72;;;3.24;99.78
64616;BME280;51027;42.162;24.754;2023-01-26T00:16:34;100614.16;;;2.98;100.00
64616;BME280;51027;42.162;24.754;2023-01-26T00:19:00;100587.22;;;2.88;100.00
64616;BME280;51027;42.162;24.754;2023-01-26T00:21:26;100589.84;;;2.96;99.69
64616;BME280;51027;42.162;24.754;2023-01-26T00:23:51;100592.50;;;3.05;100.00
64616;BME280;51027;42.162;24.754;2023-01-26T00:26:22;100594.19;;;2.96;100.00
64616;BME280;51027;42.162;24.754;2023-01-26T00:28:48;100595.84;;;2.84;100.00
64616;BME280;51027;42.162;24.754;2023-01-26T00:31:19;100593.25;;;2.81;100.00
64616;BME280;51027;42.162;24.754;2023-01-26T00:33:45;100589.81;;;2.88;100.00
64616;BME280;51027;42.162;24.754;2023-01-26T00:36:11;100543.69;;;2.65;99.57
64616;BME280;51027;42.162;24.754;2023-01-26T00:38:38;100589.03;;;3.02;99.52
64616;BME280;51027;42.162;24.754;2023-01-26T00:41:03;100592.41;;;2.87;100.00
64616;BME280;51027;42.162;24.754;2023-01-26T00:43:28;100564.53;;;2.68;100.00
64616;BME280;51027;42.162;24.754;2023-01-26T00:45:54;100560.97;;;2.55;100.00
64616;BME280;51027;42.162;24.754;2023-01-26T00:48:20;100593.38;;;3.04;100.00
64616;BME280;51027;42.162;24.754;2023-01-26T00:50:45;100581.91;;;2.73;100.00
64616;BME280;51027;42.162;24.754;2023-01-26T00:53:10;100595.91;;;2.95;100.00
64616;BME280;51027;42.162;24.754;2023-01-26T00:55:36;100589.94;;;3.11;100.00
64616;BME280;51027;42.162;24.754;2023-01-26T00:58:06;100572.53;;;2.98;100.00
64616;BME280;51027;42.162;24.754;2023-01-26T01:00:32;100588.13;;;2.95;100.00
64616;BME280;51027;42.162;24.754;2023-01-26T01:02:58;100580.28;;;2.92;100.00
64616;BME280;51027;42.162;24.754;2023-01-26T01:05:25;100589.78;;;2.82;100.00
64616;BME280;51027;42.162;24.754;2023-01-26T01:07:51;100576.84;;;2.93;100.00
64616;BME280;51027;42.162;24.754;2023-01-26T01:10:17;100576.78;;;2.82;100.00
64616;BME280;51027;42.162;24.754;2023-01-26T01:12:42;100577.56;;;2.75;100.00
64616;BME280;51027;42.162;24.754;2023-01-26T01:15:08;100567.09;;;2.65;100.00
64616;BME280;51027;42.162;24.754;2023-01-26T01:17:34;100567.16;;;2.75;100.00
64616;BME280;51027;42.162;24.754;2023-01-26T01:20:01;100562.91;;;2.85;100.00
64616;BME280;51027;42.162;24.754;2023-01-26T01:22:27;100564.56;;;2.75;100.00
64616;BME280;51027;42.162;24.754;2023-01-26T01:24:53;100556.88;;;2.94;100.00
64616;BME280;51027;42.162;24.754;2023-01-26T01:27:18;100549.88;;;2.79;100.00
64616;BME280;51027;42.162;24.754;2023-01-26T01:29:43;100558.56;;;2.85;100.00
64616;BME280;51027;42.162;24.754;2023-01-26T01:32:09;100556.00;;;2.92;100.00
64616;BME280;51027;42.162;24.754;2023-01-26T01:34:34;100550.03;;;3.09;100.00
64616;BME280;51027;42.162;24.754;2023-01-26T01:36:59;100553.47;;;2.98;100.00
64616;BME280;51027;42.162;24.754;2023-01-26T01:39:25;100548.22;;;2.92;100.00
64616;BME280;51027;42.162;24.754;2023-01-26T01:41:50;100542.13;;;2.89;100.00
64616;BME280;51027;42.162;24.754;2023-01-26T01:44:22;100547.28;;;2.82;99.83
64616;BME280;51027;42.162;24.754;2023-01-26T01:46:56;100552.13;;;2.30;100.00
64616;BME280;51027;42.162;24.754;2023-01-26T01:49:39;100551.41;;;2.49;100.00
64616;BME280;51027;42.162;24.754;2023-01-26T01:52:11;100544.69;;;2.85;99.99
64616;BME280;51027;42.162;24.754;2023-01-26T01:55:09;100542.09;;;2.83;100.00
64616;BME280;51027;42.162;24.754;2023-01-26T01:57:43;100510.00;;;2.83;100.00
64616;BME280;51027;42.162;24.754;2023-01-26T02:00:14;100530.03;;;2.99;99.88
64616;BME280;51027;42.162;24.754;2023-01-26T02:02:41;100527.22;;;2.61;100.00
64616;BME280;51027;42.162;24.754;2023-01-26T02:05:26;100528.22;;;2.81;100.00
64616;BME280;51027;42.162;24.754;2023-01-26T02:07:55;100516.06;;;2.83;100.00
64616;BME280;51027;42.162;24.754;2023-01-26T02:10:20;100517.00;;;2.95;100.00
64616;BME280;51027;42.162;24.754;2023-01-26T02:12:50;100499.47;;;2.58;100.00
64616;BME280;51027;42.162;24.754;2023-01-26T02:15:17;100494.28;;;2.57;100.00
64616;BME280;51027;42.162;24.754;2023-01-26T02:17:42;100511.69;;;2.75;100.00
64616;BME280;51027;42.162;24.754;2023-01-26T02:23:20;100483.94;;;2.71;100.00
64616;BME280;51027;42.162;24.754;2023-01-26T02:28:28;100490.16;;;2.97;100.00
64616;BME280;51027;42.162;24.754;2023-01-26T02:30:54;100500.47;;;2.79;100.00
64616;BME280;51027;42.162;24.754;2023-01-26T02:33:22;100497.88;;;2.85;100.00
64616;BME280;51027;42.162;24.754;2023-01-26T02:35:48;100470.94;;;2.72;100.00
64616;BME280;51027;42.162;24.754;2023-01-26T02:38:14;100489.19;;;2.86;100.00
64616;BME280;51027;42.162;24.754;2023-01-26T02:40:52;100490.09;;;2.96;100.00
64616;BME280;51027;42.162;24.754;2023-01-26T02:43:20;100494.38;;;2.77;100.00
64616;BME280;51027;42.162;24.754;2023-01-26T02:45:48;100472.81;;;2.98;100.00
64616;BME280;51027;42.162;24.754;2023-01-26T02:48:13;100484.91;;;2.86;100.00
64616;BME280;51027;42.162;24.754;2023-01-26T02:50:59;100479.69;;;2.96;100.00
64616;BME280;51027;42.162;24.754;2023-01-26T02:53:24;100474.50;;;2.91;100.00
64616;BME280;51027;42.162;24.754;2023-01-26T02:55:49;100478.88;;;2.97;99.28
64616;BME280;51027;42.162;24.754;2023-01-26T02:58:16;100470.13;;;2.82;100.00
64616;BME280;51027;42.162;24.754;2023-01-26T03:00:42;100473.63;;;2.95;100.00
64616;BME280;51027;42.162;24.754;2023-01-26T03:03:13;100472.81;;;3.05;99.99
64616;BME280;51027;42.162;24.754;2023-01-26T03:05:38;100475.41;;;3.01;100.00
64616;BME280;51027;42.162;24.754;2023-01-26T03:08:04;100471.91;;;2.91;100.00
64616;BME280;51027;42.162;24.754;2023-01-26T03:10:30;100472.75;;;2.93;100.00
64616;BME280;51027;42.162;24.754;2023-01-26T03:12:56;100472.75;;;2.87;100.00
64616;BME280;51027;42.162;24.754;2023-01-26T03:15:21;100464.91;;;2.79;100.00
64616;BME280;51027;42.162;24.754;2023-01-26T03:18:16;100456.31;;;3.06;99.92
64616;BME280;51027;42.162;24.754;2023-01-26T03:21:04;100452.00;;;3.04;100.00
64616;BME280;51027;42.162;24.754;2023-01-26T03:23:48;100446.78;;;3.04;99.71
64616;BME280;51027;42.162;24.754;2023-01-26T03:26:32;100445.91;;;3.02;100.00
64616;BME280;51027;42.162;24.754;2023-01-26T03:29:16;100437.16;;;2.83;100.00
64616;BME280;51027;42.162;24.754;2023-01-26T03:31:41;100449.31;;;2.82;100.00
64616;BME280;51027;42.162;24.754;2023-01-26T03:34:07;100443.25;;;2.83;100.00
64616;BME280;51027;42.162;24.754;2023-01-26T03:36:32;100405.00;;;2.61;100.00
64616;BME280;51027;42.162;24.754;2023-01-26T03:38:58;100411.13;;;2.68;100.00
64616;BME280;51027;42.162;24.754;2023-01-26T03:41:23;100426.75;;;2.84;100.00
64616;BME280;51027;42.162;24.754;2023-01-26T03:44:07;100412.88;;;2.85;100.00
64616;BME280;51027;42.162;24.754;2023-01-26T03:46:51;100420.69;;;2.82;100.00
64616;BME280;51027;42.162;24.754;2023-01-26T03:49:35;100418.09;;;2.81;100.00
64616;BME280;51027;42.162;24.754;2023-01-26T03:52:19;100406.81;;;2.80;100.00
64616;BME280;51027;42.162;24.754;2023-01-26T03:55:03;100387.66;;;2.63;100.00
64616;BME280;51027;42.162;24.754;2023-01-26T03:57:47;100405.94;;;2.84;100.00
64616;BME280;51027;42.162;24.754;2023-01-26T04:00:13;100398.97;;;2.76;100.00
64616;BME280;51027;42.162;24.754;2023-01-26T04:02:40;100391.16;;;2.68;100.00
64616;BME280;51027;42.162;24.754;2023-01-26T04:05:24;100376.41;;;2.64;100.00
64616;BME280;51027;42.162;24.754;2023-01-26T04:08:08;100360.75;;;2.47;100.00
64616;BME280;51027;42.162;24.754;2023-01-26T04:10:52;100382.53;;;2.77;100.00
64616;BME280;51027;42.162;24.754;2023-01-26T04:13:18;100385.09;;;2.72;100.00
64616;BME280;51027;42.162;24.754;2023-01-26T04:16:03;100385.09;;;2.72;100.00
64616;BME280;51027;42.162;24.754;2023-01-26T04:18:47;100386.84;;;2.73;100.00
64616;BME280;51027;42.162;24.754;2023-01-26T04:21:32;100389.47;;;2.82;100.00
64616;BME280;51027;42.162;24.754;2023-01-26T04:23:58;100390.31;;;2.72;100.00
64616;BME280;51027;42.162;24.754;2023-01-26T04:26:27;100381.72;;;2.87;100.00
64616;BME280;51027;42.162;24.754;2023-01-26T04:29:00;100372.16;;;2.87;100.00
64616;BME280;51027;42.162;24.754;2023-01-26T04:31:26;100375.66;;;2.97;100.00
64616;BME280;51027;42.162;24.754;2023-01-26T04:33:51;100369.53;;;2.80;100.00
64616;BME280;51027;42.162;24.754;2023-01-26T04:36:16;100343.50;;;2.66;100.00
64616;BME280;51027;42.162;24.754;2023-01-26T04:38:42;100367.84;;;3.06;100.00
64616;BME280;51027;42.162;24.754;2023-01-26T04:41:07;100341.78;;;2.77;98.59
64616;BME280;51027;42.162;24.754;2023-01-26T04:43:33;100364.38;;;3.04;98.52
64616;BME280;51027;42.162;24.754;2023-01-26T04:46:04;100362.66;;;3.14;97.47
64616;BME280;51027;42.162;24.754;2023-01-26T04:48:31;100356.59;;;3.12;97.29
64616;BME280;51027;42.162;24.754;2023-01-26T04:51:01;100336.59;;;2.96;97.78
64616;BME280;51027;42.162;24.754;2023-01-26T04:53:27;100354.84;;;2.99;97.25
64616;BME280;51027;42.162;24.754;2023-01-26T04:55:54;100353.09;;;3.02;96.71
64616;BME280;51027;42.162;24.754;2023-01-26T04:58:20;100340.09;;;2.88;97.12
64616;BME280;51027;42.162;24.754;2023-01-26T05:00:53;100370.44;;;2.93;97.85
64616;BME280;51027;42.162;24.754;2023-01-26T05:03:19;100371.34;;;3.16;97.06
64616;BME280;51027;42.162;24.754;2023-01-26T05:05:47;100373.09;;;3.08;95.64
64616;BME280;51027;42.162;24.754;2023-01-26T05:08:14;100358.31;;;2.99;96.77
64616;BME280;51027;42.162;24.754;2023-01-26T05:10:39;100366.13;;;3.05;96.70
64616;BME280;51027;42.162;24.754;2023-01-26T05:13:04;100370.50;;;3.22;96.58
64616;BME280;51027;42.162;24.754;2023-01-26T05:15:30;100357.44;;;3.03;97.13
64616;BME280;51027;42.162;24.754;2023-01-26T05:17:58;100353.13;;;3.13;96.92
64616;BME280;51027;42.162;24.754;2023-01-26T05:20:24;100359.19;;;2.97;98.36
64616;BME280;51027;42.162;24.754;2023-01-26T05:22:50;100358.28;;;2.93;98.19
64616;BME280;51027;42.162;24.754;2023-01-26T05:25:16;100343.53;;;2.84;98.30
64616;BME280;51027;42.162;24.754;2023-01-26T05:27:41;100364.34;;;2.95;98.92
64616;BME280;51027;42.162;24.754;2023-01-26T05:30:07;100360.06;;;3.03;99.25
64616;BME280;51027;42.162;24.754;2023-01-26T05:32:33;100346.19;;;3.07;99.67
64616;BME280;51027;42.162;24.754;2023-01-26T05:34:58;100337.47;;;2.79;99.94
64616;BME280;51027;42.162;24.754;2023-01-26T05:37:25;100341.75;;;2.70;100.00
64616;BME280;51027;42.162;24.754;2023-01-26T05:39:50;100327.91;;;2.74;100.00
64616;BME280;51027;42.162;24.754;2023-01-26T05:42:16;100342.66;;;2.82;100.00
64616;BME280;51027;42.162;24.754;2023-01-26T05:44:42;100329.69;;;2.88;100.00
64616;BME280;51027;42.162;24.754;2023-01-26T05:47:08;100332.25;;;2.85;100.00
64616;BME280;51027;42.162;24.754;2023-01-26T05:49:33;100342.63;;;2.72;99.50
64616;BME280;51027;42.162;24.754;2023-01-26T05:51:59;100339.97;;;2.53;100.00
64616;BME280;51027;42.162;24.754;2023-01-26T05:54:24;100340.06;;;2.78;100.00
64616;BME280;51027;42.162;24.754;2023-01-26T05:56:50;100336.56;;;2.70;100.00
64616;BME280;51027;42.162;24.754;2023-01-26T05:59:17;100320.97;;;2.70;100.00
64616;BME280;51027;42.162;24.754;2023-01-26T06:01:43;100314.81;;;2.51;100.00
64616;BME280;51027;42.162;24.754;2023-01-26T06:04:08;100318.31;;;2.60;100.00
64616;BME280;51027;42.162;24.754;2023-01-26T06:06:34;100338.31;;;2.80;100.00
64616;BME280;51027;42.162;24.754;2023-01-26T06:08:59;100309.66;;;2.57;100.00
64616;BME280;51027;42.162;24.754;2023-01-26T06:11:24;100339.19;;;2.77;100.00
64616;BME280;51027;42.162;24.754;2023-01-26T06:13:50;100304.41;;;2.37;100.00
64616;BME280;51027;42.162;24.754;2023-01-26T06:16:16;100308.72;;;2.38;100.00
64616;BME280;51027;42.162;24.754;2023-01-26T06:18:42;100328.63;;;2.31;100.00
64616;BME280;51027;42.162;24.754;2023-01-26T06:21:07;100325.19;;;2.36;100.00
64616;BME280;51027;42.162;24.754;2023-01-26T06:23:33;100302.53;;;2.09;100.00
64616;BME280;51027;42.162;24.754;2023-01-26T06:25:59;100327.81;;;2.46;100.00
64616;BME280;51027;42.162;24.754;2023-01-26T06:28:25;100320.91;;;2.47;100.00
64616;BME280;51027;42.162;24.754;2023-01-26T06:30:50;100322.59;;;2.43;100.00
64616;BME280;51027;42.162;24.754;2023-01-26T06:33:17;100328.75;;;2.71;100.00
64616;BME280;51027;42.162;24.754;2023-01-26T06:35:42;100330.53;;;2.81;100.00
64616;BME280;51027;42.162;24.754;2023-01-26T06:38:08;100305.22;;;2.33;100.00
64616;BME280;51027;42.162;24.754;2023-01-26T06:40:33;100306.16;;;2.53;100.00
64616;BME280;51027;42.162;24.754;2023-01-26T06:42:59;100328.72;;;2.56;100.00
64616;BME280;51027;42.162;24.754;2023-01-26T06:45:24;100308.75;;;2.55;100.00
64616;BME280;51027;42.162;24.754;2023-01-26T06:47:50;100276.63;;;2.30;100.00
64616;BME280;51027;42.162;24.754;2023-01-26T06:50:18;100314.81;;;2.52;100.00
64616;BME280;51027;42.162;24.754;2023-01-26T06:52:47;100311.38;;;2.47;100.00
64616;BME280;51027;42.162;24.754;2023-01-26T06:55:21;100315.72;;;2.60;100.00
64616;BME280;51027;42.162;24.754;2023-01-26T06:57:48;100308.75;;;2.55;100.00
64616;BME280;51027;42.162;24.754;2023-01-26T07:00:14;100307.09;;;2.71;100.00
64616;BME280;51027;42.162;24.754;2023-01-26T07:02:39;100306.19;;;2.63;100.00
64616;BME280;51027;42.162;24.754;2023-01-26T07:05:05;100301.88;;;2.58;100.00
64616;BME280;51027;42.162;24.754;2023-01-26T07:07:30;100299.28;;;2.66;100.00
64616;BME280;51027;42.162;24.754;2023-01-26T07:09:56;100296.69;;;2.72;100.00
64616;BME280;51027;42.162;24.754;2023-01-26T07:12:21;100298.47;;;2.92;100.00
64616;BME280;51027;42.162;24.754;2023-01-26T07:14:46;100231.66;;;2.62;100.00
64616;BME280;51027;42.162;24.754;2023-01-26T07:17:12;100268.13;;;3.00;100.00
64616;BME280;51027;42.162;24.754;2023-01-26T07:19:37;100274.19;;;3.06;100.00
64616;BME280;51027;42.162;24.754;2023-01-26T07:22:03;100277.69;;;3.17;100.00
64616;BME280;51027;42.162;24.754;2023-01-26T07:24:28;100272.47;;;3.19;100.00
64616;BME280;51027;42.162;24.754;2023-01-26T07:26:55;100268.97;;;3.02;100.00
64616;BME280;51027;42.162;24.754;2023-01-26T07:29:20;100272.47;;;3.07;100.00
64616;BME280;51027;42.162;24.754;2023-01-26T07:31:46;100263.75;;;2.96;100.00
64616;BME280;51027;42.162;24.754;2023-01-26T07:34:11;100260.31;;;3.32;100.00
64616;BME280;51027;42.162;24.754;2023-01-26T07:36:37;100248.16;;;3.43;100.00
64616;BME280;51027;42.162;24.754;2023-01-26T07:39:03;100260.31;;;3.49;100.00
64616;BME280;51027;42.162;24.754;2023-01-26T07:41:30;100250.78;;;3.17;100.00
64616;BME280;51027;42.162;24.754;2023-01-26T07:43:56;100262.91;;;3.03;100.00
64616;BME280;51027;42.162;24.754;2023-01-26T07:46:21;100250.75;;;3.41;100.00
64616;BME280;51027;42.162;24.754;2023-01-26T07:48:47;100244.69;;;3.29;100.00
64616;BME280;51027;42.162;24.754;2023-01-26T07:51:13;100255.97;;;3.22;100.00
64616;BME280;51027;42.162;24.754;2023-01-26T07:53:38;100245.56;;;3.29;100.00
64616;BME280;51027;42.162;24.754;2023-01-26T07:56:14;100261.19;;;3.03;100.00
64616;BME280;51027;42.162;24.754;2023-01-26T07:58:40;100257.72;;;3.07;100.00
64616;BME280;51027;42.162;24.754;2023-01-26T08:01:14;100244.66;;;2.65;100.00
64616;BME280;51027;42.162;24.754;2023-01-26T08:03:40;100241.16;;;2.55;100.00
64616;BME280;51027;42.162;24.754;2023-01-26T08:06:07;100243.81;;;2.73;100.00
64616;BME280;51027;42.162;24.754;2023-01-26T08:08:33;100260.25;;;2.63;100.00
64616;BME280;51027;42.162;24.754;2023-01-26T08:10:59;100261.16;;;2.82;100.00
64616;BME280;51027;42.162;24.754;2023-01-26T08:13:29;100246.44;;;2.93;100.00
64616;BME280;51027;42.162;24.754;2023-01-26T08:16:02;100240.31;;;2.64;100.00
64616;BME280;51027;42.162;24.754;2023-01-26T08:18:29;100250.72;;;2.65;100.00
64616;BME280;51027;42.162;24.754;2023-01-26T08:20:54;100254.16;;;2.50;100.00
64616;BME280;51027;42.162;24.754;2023-01-26T08:23:20;100259.34;;;2.37;100.00
64616;BME280;51027;42.162;24.754;2023-01-26T08:25:46;100258.50;;;2.54;100.00
64616;BME280;51027;42.162;24.754;2023-01-26T08:28:12;100255.91;;;2.54;100.00
64616;BME280;51027;42.162;24.754;2023-01-26T08:30:37;100252.47;;;2.75;100.00
64616;BME280;51027;42.162;24.754;2023-01-26T08:33:03;100226.44;;;2.52;100.00
64616;BME280;51027;42.162;24.754;2023-01-26T08:35:30;100242.06;;;2.71;100.00
64616;BME280;51027;42.162;24.754;2023-01-26T08:37:56;100247.28;;;2.84;100.00
64616;BME280;51027;42.162;24.754;2023-01-26T08:40:22;100243.81;;;2.81;100.00
64616;BME280;51027;42.162;24.754;2023-01-26T08:42:49;100236.00;;;2.84;100.00
64616;BME280;51027;42.162;24.754;2023-01-26T08:45:15;100234.28;;;2.77;100.00
64616;BME280;51027;42.162;24.754;2023-01-26T08:47:40;100242.06;;;2.75;100.00
64616;BME280;51027;42.162;24.754;2023-01-26T08:50:06;100226.44;;;2.49;100.00
64616;BME280;51027;42.162;24.754;2023-01-26T08:52:31;100220.41;;;2.72;100.00
64616;BME280;51027;42.162;24.754;2023-01-26T08:54:57;100223.00;;;2.75;100.00
64616;BME280;51027;42.162;24.754;2023-01-26T08:57:23;100225.56;;;2.47;100.00
64616;BME280;51027;42.162;24.754;2023-01-26T08:59:48;100204.78;;;2.49;100.00
64616;BME280;51027;42.162;24.754;2023-01-26T09:02:13;100222.13;;;2.82;100.00
64616;BME280;51027;42.162;24.754;2023-01-26T09:04:39;100228.22;;;2.82;100.00
64616;BME280;51027;42.162;24.754;2023-01-26T09:07:04;100224.72;;;2.64;100.00
64616;BME280;51027;42.162;24.754;2023-01-26T09:09:30;100188.31;;;2.62;100.00
64616;BME280;51027;42.162;24.754;2023-01-26T09:11:56;100157.97;;;2.53;100.00
64616;BME280;51027;42.162;24.754;2023-01-26T09:14:22;100222.16;;;2.93;100.00
64616;BME280;51027;42.162;24.754;2023-01-26T09:16:48;100205.69;;;2.87;100.00
64616;BME280;51027;42.162;24.754;2023-01-26T09:19:14;100145.84;;;2.52;100.00
64616;BME280;51027;42.162;24.754;2023-01-26T09:21:39;100209.13;;;2.96;100.00
64616;BME280;51027;42.162;24.754;2023-01-26T09:24:05;100211.72;;;2.85;100.00
64616;BME280;51027;42.162;24.754;2023-01-26T09:26:30;100202.22;;;2.90;100.00
64616;BME280;51027;42.162;24.754;2023-01-26T09:28:56;100197.88;;;2.89;100.00
64616;BME280;51027;42.162;24.754;2023-01-26T09:31:21;100125.03;;;2.65;100.00
64616;BME280;51027;42.162;24.754;2023-01-26T09:33:48;100186.59;;;3.19;100.00
64616;BME280;51027;42.162;24.754;2023-01-26T09:36:14;100164.03;;;3.09;100.00
64616;BME280;51027;42.162;24.754;2023-01-26T09:38:40;100170.97;;;3.11;100.00
64616;BME280;51027;42.162;24.754;2023-01-26T09:42:01;100169.22;;;3.06;100.00
64616;BME280;51027;42.162;24.754;2023-01-26T09:44:08;100167.53;;;2.97;100.00
64616;BME280;51027;42.162;24.754;2023-01-26T09:49:08;100159.72;;;2.85;100.00
64616;BME280;51027;42.162;24.754;2023-01-26T09:51:47;100144.97;;;2.88;100.00
64616;BME280;51027;42.162;24.754;2023-01-26T09:54:39;100143.22;;;3.01;100.00
64616;BME280;51027;42.162;24.754;2023-01-26T09:57:15;100145.84;;;2.92;100.00
64616;BME280;51027;42.162;24.754;2023-01-26T09:59:49;100141.50;;;3.09;100.00
64616;BME280;51027;42.162;24.754;2023-01-26T10:05:23;100106.84;;;2.69;100.00
64616;BME280;51027;42.162;24.754;2023-01-26T10:07:50;100112.91;;;2.74;100.00
64616;BME280;51027;42.162;24.754;2023-01-26T10:10:21;100116.38;;;2.87;100.00
64616;BME280;51027;42.162;24.754;2023-01-26T10:12:49;100112.00;;;2.95;100.00
64616;BME280;51027;42.162;24.754;2023-01-26T10:15:33;100117.25;;;2.81;100.00
64616;BME280;51027;42.162;24.754;2023-01-26T10:18:06;100082.56;;;2.63;100.00
64616;BME280;51027;42.162;24.754;2023-01-26T10:20:34;100096.47;;;2.58;100.00
64616;BME280;51027;42.162;24.754;2023-01-26T10:23:06;100075.66;;;2.28;100.00
64616;BME280;51027;42.162;24.754;2023-01-26T10:25:38;100103.41;;;2.47;100.00
64616;BME280;51027;42.162;24.754;2023-01-26T10:28:32;100078.25;;;2.60;100.00
64616;BME280;51027;42.162;24.754;2023-01-26T10:31:02;100069.56;;;2.73;100.00
64616;BME280;51027;42.162;24.754;2023-01-26T10:36:00;100052.22;;;2.89;100.00
64616;BME280;51027;42.162;24.754;2023-01-26T10:40:52;100069.53;;;2.82;100.00
64616;BME280;51027;42.162;24.754;2023-01-26T10:43:18;100060.00;;;2.87;100.00
64616;BME280;51027;42.162;24.754;2023-01-26T10:45:45;100052.16;;;2.95;100.00
64616;BME280;51027;42.162;24.754;2023-01-26T10:48:22;100050.50;;;2.79;100.00
64616;BME280;51027;42.162;24.754;2023-01-26T10:50:52;100024.50;;;2.79;100.00
64616;BME280;51027;42.162;24.754;2023-01-26T10:53:26;100035.69;;;3.07;100.00
64616;BME280;51027;42.162;24.754;2023-01-26T10:56:10;100032.13;;;3.28;100.00
64616;BME280;51027;42.162;24.754;2023-01-26T11:01:07;100026.13;;;3.10;100.00
64616;BME280;51027;42.162;24.754;2023-01-26T11:03:39;100029.53;;;3.23;100.00
64616;BME280;51027;42.162;24.754;2023-01-26T11:08:36;100001.91;;;2.85;100.00
64616;BME280;51027;42.162;24.754;2023-01-26T11:11:03;99993.25;;;2.80;100.00
64616;BME280;51027;42.162;24.754;2023-01-26T11:13:32;99994.06;;;2.96;100.00
64616;BME280;51027;42.162;24.754;2023-01-26T11:24:34;99989.63;;;3.23;100.00
64616;BME280;51027;42.162;24.754;2023-01-26T11:32:44;99981.91;;;3.09;100.00
64616;BME280;51027;42.162;24.754;2023-01-26T11:40:50;99955.03;;;3.02;100.00
64616;BME280;51027;42.162;24.754;2023-01-26T11:46:19;99936.69;;;3.25;100.00
64616;BME280;51027;42.162;24.754;2023-01-26T11:52:02;99909.19;;;2.80;100.00
64616;BME280;51027;42.162;24.754;2023-01-26T12:00:04;99922.84;;;3.22;100.00
64616;BME280;51027;42.162;24.754;2023-01-26T12:02:38;99915.91;;;3.22;100.00
64616;BME280;51027;42.162;24.754;2023-01-26T12:05:19;99905.63;;;2.95;100.00
64616;BME280;51027;42.162;24.754;2023-01-26T12:07:56;99909.88;;;3.12;100.00
64616;BME280;51027;42.162;24.754;2023-01-26T12:10:29;99908.13;;;3.17;100.00
64616;BME280;51027;42.162;24.754;2023-01-26T12:13:07;99896.75;;;3.31;100.00
64616;BME280;51027;42.162;24.754;2023-01-26T12:15:37;99894.16;;;3.32;100.00
64616;BME280;51027;42.162;24.754;2023-01-26T12:20:41;99900.25;;;3.24;100.00
64616;BME280;51027;42.162;24.754;2023-01-26T12:23:18;99877.06;;;2.88;100.00
64616;BME280;51027;42.162;24.754;2023-01-26T12:25:53;99881.41;;;2.83;100.00
64616;BME280;51027;42.162;24.754;2023-01-26T12:28:23;99877.09;;;2.81;100.00
64616;BME280;51027;42.162;24.754;2023-01-26T12:33:45;99887.28;;;3.19;100.00
64616;BME280;51027;42.162;24.754;2023-01-26T12:36:23;99887.31;;;3.13;100.00
64616;BME280;51027;42.162;24.754;2023-01-26T12:41:34;99882.97;;;3.18;100.00
64616;BME280;51027;42.162;24.754;2023-01-26T12:44:27;99876.88;;;3.21;100.00
64616;BME280;51027;42.162;24.754;2023-01-26T12:47:37;99868.09;;;3.35;100.00
64616;BME280;51027;42.162;24.754;2023-01-26T12:50:26;99864.78;;;3.10;100.00
64616;BME280;51027;42.162;24.754;2023-01-26T12:52:58;99867.34;;;3.18;100.00
64616;BME280;51027;42.162;24.754;2023-01-26T12:58:20;99865.66;;;3.06;100.00
64616;BME280;51027;42.162;24.754;2023-01-26T13:00:52;99867.41;;;3.09;100.00
64616;BME280;51027;42.162;24.754;2023-01-26T13:03:23;99870.97;;;2.91;100.00
64616;BME280;51027;42.162;24.754;2023-01-26T13:11:03;99832.78;;;2.98;100.00
64616;BME280;51027;42.162;24.754;2023-01-26T13:13:51;99836.28;;;2.91;100.00
64616;BME280;51027;42.162;24.754;2023-01-26T13:18:49;99845.81;;;2.98;100.00
64616;BME280;51027;42.162;24.754;2023-01-26T13:21:41;99839.75;;;2.93;100.00
64616;BME280;51027;42.162;24.754;2023-01-26T13:26:55;99833.72;;;2.83;100.00
64616;BME280;51027;42.162;24.754;2023-01-26T13:31:50;99829.50;;;2.64;100.00
64616;BME280;51027;42.162;24.754;2023-01-26T13:34:21;99825.97;;;2.75;100.00
64616;BME280;51027;42.162;24.754;2023-01-26T13:36:49;99823.41;;;2.71;100.00
64616;BME280;51027;42.162;24.754;2023-01-26T13:39:30;99818.25;;;2.63;100.00
64616;BME280;51027;42.162;24.754;2023-01-26T13:41:58;99799.03;;;2.84;100.00
64616;BME280;51027;42.162;24.754;2023-01-26T13:44:36;99791.31;;;2.78;100.00
64616;BME280;51027;42.162;24.754;2023-01-26T13:47:17;99800.78;;;2.82;100.00
64616;BME280;51027;42.162;24.754;2023-01-26T13:49:45;99768.84;;;2.62;100.00
64616;BME280;51027;42.162;24.754;2023-01-26T13:52:18;99785.22;;;2.79;100.00
64616;BME280;51027;42.162;24.754;2023-01-26T13:54:45;99791.34;;;2.64;100.00
64616;BME280;51027;42.162;24.754;2023-01-26T13:57:11;99787.03;;;2.68;100.00
64616;BME280;51027;42.162;24.754;2023-01-26T13:59:53;99760.16;;;2.67;100.00
64616;BME280;51027;42.162;24.754;2023-01-26T14:02:27;99770.50;;;2.78;100.00
64616;BME280;51027;42.162;24.754;2023-01-26T14:04:55;99735.13;;;2.49;100.00
64616;BME280;51027;42.162;24.754;2023-01-26T14:07:37;99752.28;;;2.75;100.00
64616;BME280;51027;42.162;24.754;2023-01-26T14:10:05;99745.44;;;2.66;100.00
64616;BME280;51027;42.162;24.754;2023-01-26T14:12:54;99746.41;;;2.50;100.00